Weather at Ronald Reagan Washington National Airport

Public forecast

Using degrees Fahrenheit for public forecast. Weather courtesy of forecast.io.

Current aviation weather report (METAR) for Ronald Reagan Washington National Airport

Retrieved 2021/01/23 11:52 UTC (48 minutes ago):

KDCA 231152Z 32010G17KT 10SM BKN060 BKN250 00/M12 A3013 RMK AO2 SLP203 T00001117 10039 20000 53028

Aviation forecast (TAF) for Ronald Reagan Washington National Airport

Retrieved 2021/01/23 12:22 UTC (18 minutes ago):

TAF KDCA 231120Z 2312/2418 33012G22KT P6SM BKN035 FM231300 33018G33KT P6SM BKN035 FM231700 33015G28KT P6SM FEW050 FM232300 33008G16KT P6SM SCT200 FM240600 33008KT P6SM SCT100 BKN200